createdAt,value
2022-12-26T00:01:05.889Z,3.70
2022-12-26T00:03:33.011Z,5.20
2022-12-26T00:05:59.988Z,3.60
2022-12-26T00:08:26.895Z,3.70
2022-12-26T00:10:53.815Z,3.70
2022-12-26T00:13:38.717Z,3.70
2022-12-26T00:16:17.397Z,3.70
2022-12-26T00:18:45.019Z,3.70
2022-12-26T00:21:13.851Z,3.70
2022-12-26T00:23:41.343Z,3.70
2022-12-26T00:26:10.683Z,3.70
2022-12-26T00:28:38.114Z,3.70
2022-12-26T00:31:20.614Z,3.70
2022-12-26T00:33:48.786Z,3.70
2022-12-26T00:36:23.401Z,3.80
2022-12-26T00:38:51.665Z,4.80
2022-12-26T00:41:20.148Z,3.70
2022-12-26T00:43:47.767Z,3.70
2022-12-26T00:46:15.493Z,3.70
2022-12-26T00:48:42.961Z,6.70
2022-12-26T00:51:09.947Z,3.70
2022-12-26T00:53:37.449Z,3.70
2022-12-26T00:56:04.622Z,3.70
2022-12-26T00:58:31.878Z,3.70
2022-12-26T01:01:20.030Z,3.70
2022-12-26T01:03:48.599Z,3.80
2022-12-26T01:06:16.180Z,3.80
2022-12-26T01:08:43.782Z,3.80
2022-12-26T01:11:13.689Z,3.70
2022-12-26T01:13:41.064Z,3.80
2022-12-26T01:16:08.857Z,3.70
2022-12-26T01:18:36.439Z,3.80
2022-12-26T01:21:08.216Z,3.80
2022-12-26T01:23:35.441Z,3.70
2022-12-26T01:26:15.264Z,3.70
2022-12-26T01:28:43.005Z,3.70
2022-12-26T01:31:10.026Z,3.80
2022-12-26T01:33:36.982Z,3.70
2022-12-26T01:36:04.077Z,3.70
2022-12-26T01:38:30.903Z,3.80
2022-12-26T01:41:16.876Z,3.70
2022-12-26T01:44:05.912Z,3.70
2022-12-26T01:46:44.359Z,3.70
2022-12-26T01:49:37.595Z,3.70
2022-12-26T01:52:19.502Z,3.70
2022-12-26T01:54:50.837Z,3.80
2022-12-26T01:57:42.718Z,3.70
2022-12-26T02:00:11.155Z,3.70
2022-12-26T02:02:57.619Z,3.80
2022-12-26T02:05:36.424Z,3.70
2022-12-26T02:08:21.260Z,3.80
2022-12-26T02:10:58.608Z,3.80
2022-12-26T02:13:26.205Z,2.30
2022-12-26T02:15:53.344Z,3.80
2022-12-26T02:18:20.350Z,3.80
2022-12-26T02:21:31.883Z,3.80
2022-12-26T02:24:07.784Z,3.80
2022-12-26T02:27:19.134Z,3.80
2022-12-26T02:30:08.427Z,3.80
2022-12-26T02:33:21.979Z,3.80
2022-12-26T02:36:00.628Z,3.80
2022-12-26T02:38:48.402Z,3.80
2022-12-26T02:41:47.384Z,3.80
2022-12-26T02:44:46.616Z,3.80
2022-12-26T02:47:28.006Z,3.80
2022-12-26T02:50:36.707Z,3.90
2022-12-26T02:53:51.784Z,3.80
2022-12-26T02:56:53.714Z,3.80
2022-12-26T03:00:08.471Z,3.90
2022-12-26T03:03:12.798Z,3.90
2022-12-26T03:06:11.875Z,3.90
2022-12-26T03:09:05.821Z,3.90
2022-12-26T03:12:01.972Z,5.50
2022-12-26T03:14:35.862Z,3.90
2022-12-26T03:17:22.369Z,3.90
2022-12-26T03:20:04.501Z,3.90
2022-12-26T03:22:48.790Z,3.90
2022-12-26T03:26:20.480Z,3.90
2022-12-26T03:28:47.985Z,3.90
2022-12-26T03:31:16.359Z,3.80
2022-12-26T03:34:05.916Z,3.90
2022-12-26T03:37:21.190Z,6.60
2022-12-26T03:40:36.518Z,3.90
2022-12-26T03:43:39.060Z,3.90
2022-12-26T03:47:13.251Z,3.90
2022-12-26T03:50:12.287Z,3.90
2022-12-26T03:53:20.228Z,3.90
2022-12-26T03:56:50.802Z,3.90
2022-12-26T03:59:47.550Z,3.90
2022-12-26T04:02:35.514Z,3.90
2022-12-26T04:05:24.299Z,3.90
2022-12-26T04:08:18.944Z,3.90
2022-12-26T04:11:15.015Z,3.90
2022-12-26T04:14:24.851Z,3.90
2022-12-26T04:17:15.831Z,3.90
2022-12-26T04:20:03.953Z,3.90
2022-12-26T04:23:07.844Z,3.90
2022-12-26T04:26:05.668Z,3.90
2022-12-26T04:28:51.459Z,3.90
2022-12-26T04:31:52.326Z,3.90
2022-12-26T04:34:46.763Z,3.90
2022-12-26T04:37:40.262Z,3.90
2022-12-26T04:40:32.564Z,3.90
2022-12-26T04:43:47.033Z,3.90
2022-12-26T04:46:07.012Z,3.90
2022-12-26T04:49:03.896Z,3.90
2022-12-26T04:51:30.899Z,3.90
2022-12-26T04:53:57.764Z,4.00
2022-12-26T04:56:24.740Z,3.90
2022-12-26T04:58:52.222Z,7.00
2022-12-26T05:01:38.012Z,3.90
2022-12-26T05:04:24.032Z,3.90
2022-12-26T05:07:09.847Z,3.90
2022-12-26T05:09:36.879Z,3.90
2022-12-26T05:12:06.799Z,3.90
2022-12-26T05:14:36.063Z,3.90
2022-12-26T05:17:22.926Z,3.90
2022-12-26T05:20:09.204Z,3.90
2022-12-26T05:22:59.297Z,3.90
2022-12-26T05:26:10.391Z,3.90
2022-12-26T05:28:43.195Z,3.90
2022-12-26T05:31:17.408Z,3.90
2022-12-26T05:34:04.315Z,3.90
2022-12-26T05:36:56.526Z,4.00
2022-12-26T05:39:23.462Z,3.90
2022-12-26T05:41:50.780Z,3.90
2022-12-26T05:44:17.665Z,3.90
2022-12-26T05:46:44.598Z,3.90
2022-12-26T05:49:11.596Z,3.90
2022-12-26T05:51:38.877Z,4.80
2022-12-26T05:54:06.035Z,3.90
2022-12-26T05:56:32.972Z,3.90
2022-12-26T05:59:01.613Z,3.90
2022-12-26T06:01:30.511Z,3.90
2022-12-26T06:04:00.214Z,3.90
2022-12-26T06:06:28.433Z,3.90
2022-12-26T06:08:57.268Z,6.40
2022-12-26T06:11:26.672Z,3.90
2022-12-26T06:13:55.034Z,3.90
2022-12-26T06:16:22.189Z,4.00
2022-12-26T06:18:49.643Z,3.90
2022-12-26T06:21:19.618Z,4.00
2022-12-26T06:23:47.019Z,4.00
2022-12-26T06:26:14.196Z,3.90
2022-12-26T06:28:43.523Z,4.00
2022-12-26T06:31:24.854Z,4.00
2022-12-26T06:33:58.331Z,4.00
2022-12-26T06:36:27.388Z,4.00
2022-12-26T06:38:55.257Z,4.00
2022-12-26T06:41:24.690Z,4.00
2022-12-26T06:43:52.371Z,4.00
2022-12-26T06:46:22.768Z,4.00
2022-12-26T06:48:50.104Z,4.00
2022-12-26T06:51:23.903Z,4.00
2022-12-26T06:53:52.610Z,4.00
2022-12-26T06:56:26.235Z,3.90
2022-12-26T06:58:59.079Z,4.00
2022-12-26T07:01:28.342Z,4.00
2022-12-26T07:03:56.150Z,4.00
2022-12-26T07:06:28.088Z,4.00
2022-12-26T07:09:09.367Z,4.00
2022-12-26T07:11:39.449Z,4.00
2022-12-26T07:14:06.626Z,4.00
2022-12-26T07:16:39.034Z,4.00
2022-12-26T07:19:07.185Z,4.00
2022-12-26T07:21:40.483Z,4.00
2022-12-26T07:24:19.942Z,3.90
2022-12-26T07:26:48.258Z,4.10
2022-12-26T07:29:15.802Z,4.10
2022-12-26T07:31:42.846Z,4.00
2022-12-26T07:34:10.193Z,4.10
2022-12-26T07:36:37.106Z,4.10
2022-12-26T07:39:04.191Z,4.10
2022-12-26T07:41:50.026Z,4.00
2022-12-26T07:44:17.196Z,4.10
2022-12-26T07:46:45.991Z,4.10
2022-12-26T07:49:13.230Z,4.10
2022-12-26T07:51:41.305Z,4.20
2022-12-26T07:54:11.681Z,4.10
2022-12-26T07:56:39.950Z,4.20
2022-12-26T07:59:07.127Z,4.10
2022-12-26T08:01:34.146Z,4.20
2022-12-26T08:04:01.239Z,4.10
2022-12-26T08:06:28.203Z,4.20
2022-12-26T08:08:55.133Z,4.50
2022-12-26T08:11:23.946Z,4.30
2022-12-26T08:13:52.211Z,4.30
2022-12-26T08:16:20.640Z,4.30
2022-12-26T08:18:47.662Z,4.20
2022-12-26T08:21:14.660Z,4.40
2022-12-26T08:23:41.682Z,4.40
2022-12-26T08:26:12.051Z,4.30
2022-12-26T08:28:39.443Z,4.30
2022-12-26T08:31:12.787Z,4.40
2022-12-26T08:33:39.738Z,4.40
2022-12-26T08:36:10.267Z,4.40
2022-12-26T08:38:37.842Z,4.40
2022-12-26T08:41:05.354Z,4.40
2022-12-26T08:43:53.149Z,4.40
2022-12-26T08:46:21.861Z,4.40
2022-12-26T08:48:50.514Z,4.40
2022-12-26T08:51:22.798Z,4.40
2022-12-26T08:53:51.727Z,4.50
2022-12-26T08:56:24.527Z,4.40
2022-12-26T08:58:52.137Z,4.40
2022-12-26T09:01:24.378Z,4.50
2022-12-26T09:03:58.340Z,4.50
2022-12-26T09:06:25.932Z,4.50
2022-12-26T09:08:53.765Z,4.50
2022-12-26T09:11:26.821Z,4.50
2022-12-26T09:13:56.199Z,4.60
2022-12-26T09:16:32.713Z,7.50
2022-12-26T09:19:04.614Z,4.70
2022-12-26T09:21:32.451Z,4.70
2022-12-26T09:24:11.640Z,4.80
2022-12-26T09:26:38.817Z,4.80
2022-12-26T09:29:06.908Z,4.90
2022-12-26T09:31:35.683Z,4.90
2022-12-26T09:34:07.349Z,7.00
2022-12-26T09:36:40.541Z,5.00
2022-12-26T09:39:09.024Z,5.00
2022-12-26T09:42:06.688Z,5.00
2022-12-26T09:45:16.917Z,5.10
2022-12-26T09:48:04.952Z,5.10
2022-12-26T09:50:42.689Z,5.10
2022-12-26T09:53:19.848Z,5.20
2022-12-26T09:56:23.677Z,5.20
2022-12-26T09:59:07.914Z,5.30
2022-12-26T10:01:36.826Z,5.30
2022-12-26T10:04:29.673Z,5.30
2022-12-26T10:07:29.331Z,7.90
2022-12-26T10:10:11.380Z,5.40
2022-12-26T10:13:04.628Z,5.30
2022-12-26T10:15:55.242Z,5.40
2022-12-26T10:18:50.210Z,5.40
2022-12-26T10:21:40.103Z,5.40
2022-12-26T10:24:18.161Z,5.40
2022-12-26T10:26:50.112Z,5.40
2022-12-26T10:29:38.017Z,5.40
2022-12-26T10:32:36.443Z,5.40
2022-12-26T10:35:33.989Z,5.40
2022-12-26T10:38:27.899Z,5.50
2022-12-26T10:41:02.929Z,5.50
2022-12-26T10:43:34.940Z,5.50
2022-12-26T10:46:26.631Z,7.10
2022-12-26T10:48:54.395Z,5.60
2022-12-26T10:51:21.603Z,5.60
2022-12-26T10:53:52.158Z,5.60
2022-12-26T10:56:21.864Z,5.60
2022-12-26T10:59:15.236Z,5.50
2022-12-26T11:01:47.397Z,5.50
2022-12-26T11:07:17.224Z,5.50
2022-12-26T11:09:46.057Z,5.60
2022-12-26T11:12:36.979Z,5.50
2022-12-26T11:15:18.895Z,5.50
2022-12-26T11:17:50.562Z,5.60
2022-12-26T11:20:17.328Z,5.60
2022-12-26T11:22:45.671Z,7.50
2022-12-26T11:25:49.027Z,5.60
2022-12-26T11:28:35.984Z,5.60
2022-12-26T11:31:07.547Z,5.70
2022-12-26T11:33:45.138Z,5.70
2022-12-26T11:36:22.975Z,5.70
2022-12-26T11:39:00.307Z,5.80
2022-12-26T11:41:34.357Z,5.80
2022-12-26T11:44:10.527Z,6.60
2022-12-26T11:46:58.227Z,5.80
2022-12-26T11:49:33.978Z,5.90
2022-12-26T11:52:34.668Z,5.90
2022-12-26T11:55:01.821Z,5.90
2022-12-26T11:57:32.332Z,5.90
2022-12-26T12:00:24.626Z,5.90
2022-12-26T12:02:51.645Z,6.00
2022-12-26T12:05:24.208Z,6.00
2022-12-26T12:08:09.670Z,6.00
2022-12-26T12:10:54.132Z,6.00
2022-12-26T12:13:23.915Z,6.10
2022-12-26T12:16:25.194Z,6.10
2022-12-26T12:19:44.023Z,6.10
2022-12-26T12:22:31.834Z,6.10
2022-12-26T12:25:52.667Z,6.00
2022-12-26T12:28:56.284Z,6.00
2022-12-26T12:31:36.457Z,6.00
2022-12-26T12:34:41.902Z,6.00
2022-12-26T12:37:25.753Z,6.00
2022-12-26T12:40:42.104Z,5.90
2022-12-26T12:43:14.799Z,6.00
2022-12-26T12:45:56.677Z,6.00
2022-12-26T12:48:44.750Z,6.00
2022-12-26T12:51:51.532Z,6.00
2022-12-26T12:54:36.652Z,6.00
2022-12-26T12:57:43.605Z,6.10
2022-12-26T13:00:21.728Z,6.10
2022-12-26T13:03:01.733Z,6.10
2022-12-26T13:05:48.584Z,6.10
2022-12-26T13:08:24.485Z,6.10
2022-12-26T13:11:35.021Z,6.10
2022-12-26T13:14:21.190Z,6.10
2022-12-26T13:17:16.749Z,6.10
2022-12-26T13:20:06.050Z,6.10
2022-12-26T13:23:04.597Z,6.10
2022-12-26T13:25:41.736Z,6.20
2022-12-26T13:28:18.404Z,6.20
2022-12-26T13:30:45.689Z,6.20
2022-12-26T13:33:16.019Z,6.10
2022-12-26T13:36:00.216Z,6.20
2022-12-26T13:38:55.740Z,6.10
2022-12-26T13:41:43.047Z,6.10
2022-12-26T13:44:19.062Z,6.20
2022-12-26T13:46:45.831Z,6.10
2022-12-26T13:49:38.854Z,6.10
2022-12-26T13:52:11.842Z,6.20
2022-12-26T13:55:04.830Z,6.20
2022-12-26T13:57:41.880Z,6.10
2022-12-26T14:00:44.460Z,6.10
2022-12-26T14:03:46.613Z,6.10
2022-12-26T14:06:22.828Z,6.10
2022-12-26T14:09:10.801Z,6.10
2022-12-26T14:12:02.495Z,6.10
2022-12-26T14:14:57.012Z,6.10
2022-12-26T14:18:08.469Z,6.20
2022-12-26T14:21:12.177Z,6.20
2022-12-26T14:23:57.881Z,6.10
2022-12-26T14:26:33.608Z,6.10
2022-12-26T14:29:31.137Z,6.10
2022-12-26T14:32:45.822Z,6.10
2022-12-26T14:35:43.843Z,6.10
2022-12-26T14:38:32.449Z,6.00
2022-12-26T14:41:05.360Z,8.40
2022-12-26T14:43:37.869Z,6.00
2022-12-26T14:46:32.732Z,6.00
2022-12-26T14:49:17.761Z,6.00
2022-12-26T14:51:45.320Z,6.00
2022-12-26T14:54:22.338Z,6.00
2022-12-26T14:56:53.085Z,6.00
2022-12-26T14:59:32.463Z,5.90
2022-12-26T15:02:12.215Z,5.90
2022-12-26T15:05:00.333Z,5.90
2022-12-26T15:08:13.430Z,5.90
2022-12-26T15:11:25.973Z,5.90
2022-12-26T15:14:57.603Z,5.90
2022-12-26T15:18:02.328Z,5.90
2022-12-26T15:21:12.235Z,5.90
2022-12-26T15:23:56.933Z,5.90
2022-12-26T15:26:44.919Z,5.90
2022-12-26T15:29:36.555Z,5.90
2022-12-26T15:32:12.140Z,5.80
2022-12-26T15:35:36.378Z,5.80
2022-12-26T15:38:22.878Z,5.90
2022-12-26T15:41:03.031Z,5.80
2022-12-26T15:44:13.176Z,5.80
2022-12-26T15:46:51.584Z,5.80
2022-12-26T15:50:18.492Z,5.80
2022-12-26T15:53:14.821Z,5.80
2022-12-26T15:56:03.293Z,5.80
2022-12-26T15:59:09.492Z,5.70
2022-12-26T16:01:40.825Z,5.80
2022-12-26T16:04:22.637Z,5.90
2022-12-26T16:07:30.702Z,5.70
2022-12-26T16:09:58.536Z,5.70
2022-12-26T16:12:28.475Z,5.70
2022-12-26T16:15:10.575Z,5.70
2022-12-26T16:17:39.490Z,7.50
2022-12-26T16:20:51.133Z,5.70
2022-12-26T16:23:22.373Z,5.70
2022-12-26T16:25:52.876Z,5.70
2022-12-26T16:28:27.295Z,5.70
2022-12-26T16:30:56.087Z,5.70
2022-12-26T16:33:23.207Z,7.40
2022-12-26T16:35:53.882Z,5.70
2022-12-26T16:38:30.804Z,5.60
2022-12-26T16:41:00.399Z,5.60
2022-12-26T16:43:34.582Z,7.70
2022-12-26T16:46:05.357Z,5.60
2022-12-26T16:48:34.193Z,5.90
2022-12-26T16:51:08.250Z,5.60
2022-12-26T16:53:35.173Z,5.60
2022-12-26T16:56:28.977Z,5.60
2022-12-26T16:59:16.883Z,5.60
2022-12-26T17:01:58.405Z,5.40
2022-12-26T17:04:28.431Z,5.50
2022-12-26T17:07:06.440Z,5.60
2022-12-26T17:09:44.654Z,5.50
2022-12-26T17:12:30.291Z,5.50
2022-12-26T17:14:58.928Z,7.60
2022-12-26T17:17:36.053Z,5.50
2022-12-26T17:20:21.906Z,5.50
2022-12-26T17:22:54.200Z,7.10
2022-12-26T17:25:30.254Z,5.50
2022-12-26T17:28:09.740Z,5.50
2022-12-26T17:30:42.015Z,5.50
2022-12-26T17:33:25.483Z,7.30
2022-12-26T17:38:46.309Z,5.50
2022-12-26T17:41:16.639Z,5.50
2022-12-26T17:43:45.636Z,7.30
2022-12-26T17:46:15.934Z,3.70
2022-12-26T17:48:43.771Z,5.50
2022-12-26T17:51:18.677Z,5.50
2022-12-26T17:53:50.631Z,5.50
2022-12-26T17:56:24.636Z,5.50
2022-12-26T17:58:51.658Z,6.40
2022-12-26T18:01:21.277Z,5.40
2022-12-26T18:03:49.345Z,5.50
2022-12-26T18:06:17.360Z,7.60
2022-12-26T18:08:44.945Z,5.40
2022-12-26T18:11:13.909Z,5.50
2022-12-26T18:13:41.904Z,5.40
2022-12-26T18:16:16.423Z,7.80
2022-12-26T18:18:46.024Z,5.30
2022-12-26T18:21:15.599Z,5.30
2022-12-26T18:23:42.965Z,5.40
2022-12-26T18:26:23.339Z,5.40
2022-12-26T18:28:51.875Z,5.30
2022-12-26T18:31:19.139Z,5.40
2022-12-26T18:33:46.111Z,5.30
2022-12-26T18:36:15.049Z,5.40
2022-12-26T18:38:42.998Z,8.00
2022-12-26T18:41:18.629Z,5.30
2022-12-26T18:43:46.299Z,5.30
2022-12-26T18:46:25.371Z,5.30
2022-12-26T18:48:54.173Z,5.30
2022-12-26T18:51:21.671Z,5.30
2022-12-26T18:53:48.740Z,5.30
2022-12-26T18:56:19.223Z,5.30
2022-12-26T18:58:52.392Z,5.30
2022-12-26T19:01:22.829Z,5.30
2022-12-26T19:03:49.987Z,5.30
2022-12-26T19:06:23.375Z,5.20
2022-12-26T19:08:50.299Z,6.00
2022-12-26T19:11:17.582Z,5.20
2022-12-26T19:13:44.553Z,5.20
2022-12-26T19:16:11.637Z,5.20
2022-12-26T19:18:38.654Z,5.20
2022-12-26T19:21:11.652Z,5.30
2022-12-26T19:23:38.675Z,5.20
2022-12-26T19:26:15.011Z,5.20
2022-12-26T19:28:42.080Z,5.30
2022-12-26T19:31:14.327Z,8.00
2022-12-26T19:33:41.757Z,5.20
2022-12-26T19:36:10.027Z,4.20
2022-12-26T19:38:37.571Z,5.20
2022-12-26T19:41:11.180Z,5.20
2022-12-26T19:43:38.944Z,5.20
2022-12-26T19:46:11.189Z,5.20
2022-12-26T19:48:39.402Z,5.20
2022-12-26T19:51:10.315Z,5.20
2022-12-26T19:53:38.444Z,7.70
2022-12-26T19:56:24.203Z,7.70
2022-12-26T19:58:56.189Z,5.20
2022-12-26T20:01:31.362Z,7.50
2022-12-26T20:04:01.973Z,5.10
2022-12-26T20:06:31.396Z,5.10
2022-12-26T20:09:02.128Z,7.20
2022-12-26T20:11:33.731Z,5.10
2022-12-26T20:14:02.681Z,5.10
2022-12-26T20:17:03.781Z,5.10
2022-12-26T20:19:16.854Z,5.10
2022-12-26T20:21:43.699Z,5.10
2022-12-26T20:24:12.513Z,5.10
2022-12-26T20:26:40.837Z,5.10
2022-12-26T20:29:08.886Z,5.10
2022-12-26T20:31:39.109Z,5.10
2022-12-26T20:34:06.726Z,5.10
2022-12-26T20:36:36.526Z,5.10
2022-12-26T20:39:10.878Z,5.00
2022-12-26T20:41:38.244Z,6.90
2022-12-26T20:44:05.549Z,5.10
2022-12-26T20:46:34.094Z,5.10
2022-12-26T20:49:04.451Z,7.20
2022-12-26T20:51:37.267Z,5.00
2022-12-26T20:54:08.570Z,5.00
2022-12-26T20:56:37.389Z,7.70
2022-12-26T20:59:06.374Z,5.10
2022-12-26T21:01:33.805Z,6.90
2022-12-26T21:04:01.119Z,5.10
2022-12-26T21:06:36.072Z,5.10
2022-12-26T21:09:05.397Z,5.10
2022-12-26T21:11:36.362Z,7.40
2022-12-26T21:14:08.794Z,5.10
2022-12-26T21:16:43.015Z,5.10
2022-12-26T21:19:15.415Z,5.10
2022-12-26T21:21:46.033Z,6.80
2022-12-26T21:24:27.883Z,5.10
2022-12-26T21:26:56.341Z,5.10
2022-12-26T21:29:28.156Z,5.00
2022-12-26T21:31:56.039Z,5.00
2022-12-26T21:34:26.463Z,5.00
2022-12-26T21:37:13.587Z,5.10
2022-12-26T21:39:41.698Z,7.60
2022-12-26T21:42:09.454Z,5.00
2022-12-26T21:44:37.080Z,5.10
2022-12-26T21:47:05.455Z,5.00
2022-12-26T21:49:32.364Z,5.00
2022-12-26T21:51:59.314Z,5.10
2022-12-26T21:54:48.599Z,5.10
2022-12-26T21:57:16.818Z,5.10
2022-12-26T21:59:55.893Z,5.10
2022-12-26T22:02:50.631Z,5.00
2022-12-26T22:05:19.621Z,5.10
2022-12-26T22:07:47.341Z,5.00
2022-12-26T22:10:33.580Z,5.10
2022-12-26T22:13:01.390Z,5.10
2022-12-26T22:15:47.142Z,5.10
2022-12-26T22:18:14.167Z,5.10
2022-12-26T22:20:41.489Z,5.10
2022-12-26T22:23:08.431Z,5.10
2022-12-26T22:25:35.344Z,5.00
2022-12-26T22:28:02.432Z,5.10
2022-12-26T22:30:29.367Z,5.10
2022-12-26T22:32:56.377Z,6.90
2022-12-26T22:35:23.257Z,5.00
2022-12-26T22:37:50.157Z,6.20
2022-12-26T22:40:17.111Z,5.00
2022-12-26T22:42:43.980Z,5.10
2022-12-26T22:45:11.056Z,5.10
2022-12-26T22:47:37.976Z,5.00
2022-12-26T22:50:05.281Z,5.00
2022-12-26T22:52:32.236Z,5.10
2022-12-26T22:54:59.155Z,5.10
2022-12-26T22:57:26.038Z,5.10
2022-12-26T23:00:10.560Z,8.20
2022-12-26T23:02:38.178Z,5.10
2022-12-26T23:05:06.463Z,5.10
2022-12-26T23:07:33.920Z,5.10
2022-12-26T23:10:01.271Z,5.10
2022-12-26T23:12:44.032Z,5.10
2022-12-26T23:15:17.484Z,5.10
2022-12-26T23:18:20.659Z,5.10
2022-12-26T23:21:06.394Z,5.10
2022-12-26T23:23:33.730Z,5.10
2022-12-26T23:26:01.687Z,5.10
2022-12-26T23:28:47.692Z,5.20
2022-12-26T23:31:15.182Z,5.10
2022-12-26T23:33:42.167Z,5.20
2022-12-26T23:36:09.284Z,5.20
2022-12-26T23:38:36.351Z,5.20
2022-12-26T23:41:03.315Z,7.00
2022-12-26T23:43:33.349Z,5.20
2022-12-26T23:46:00.749Z,5.10
2022-12-26T23:48:27.884Z,5.10
2022-12-26T23:51:06.978Z,5.20
2022-12-26T23:53:34.550Z,5.20
2022-12-26T23:56:01.445Z,5.10
2022-12-26T23:58:28.552Z,5.10
